Time;durP1;ratioP1;P1;durP2;ratioP2;P2;SDS_P1;SDS_P2;PMS_P1;PMS_P2;Temp;Humidity;BMP_temperature;BMP_pressure;BME280_temperature;BME280_humidity;BME280_pressure;Samples;Min_cycle;Max_cycle;Signal;HPM_P1;HPM_P2
2023/10/09 00:01:15;;;;;;;29.73;23.20;;;;;;;30.15;60.86;101110.94;5040398;28;69563;-41
2023/10/09 00:03:50;;;;;;;12.23;10.98;;;;;;;30.09;62.28;101090.16;5036086;28;66533;-40
2023/10/09 00:06:36;;;;;;;16.67;13.85;;;;;;;30.17;61.85;101106.16;5038146;28;70397;-40
2023/10/09 00:09:46;;;;;;;19.17;17.10;;;;;;;30.18;62.40;101107.81;5039830;28;66647;-42
2023/10/09 00:12:10;;;;;;;26.95;21.77;;;;;;;30.15;62.71;101116.38;5039626;28;70651;-40
2023/10/09 00:14:40;;;;;;;38.08;27.92;;;;;;;30.20;63.11;101113.88;5040917;28;66562;-39
2023/10/09 00:19:43;;;;;;;10.82;8.50;;;;;;;30.19;63.89;101120.28;5031740;28;66389;-40
2023/10/09 00:25:14;;;;;;;7.65;7.13;;;;;;;30.11;64.25;101108.88;5039693;28;65483;-39
2023/10/09 00:27:48;;;;;;;8.05;6.65;;;;;;;30.19;64.90;101124.88;5038599;28;70111;-42
2023/10/09 00:30:21;;;;;;;6.80;6.20;;;;;;;30.19;64.94;101125.72;5033656;28;66442;-41
2023/10/09 00:33:01;;;;;;;6.70;6.30;;;;;;;30.16;65.26;101120.72;5038109;28;70049;-40
2023/10/09 00:36:09;;;;;;;6.75;6.25;;;;;;;30.16;65.54;101136.13;5036540;28;66695;-47
2023/10/09 00:38:33;;;;;;;6.65;6.25;;;;;;;30.15;65.68;101132.59;5038463;28;69898;-40
2023/10/09 00:41:10;;;;;;;7.15;6.55;;;;;;;30.09;65.09;101133.44;5040440;28;66492;-41
2023/10/09 00:43:43;;;;;;;7.35;6.75;;;;;;;30.18;65.78;101148.41;5038617;28;70363;-41
2023/10/09 00:49:02;;;;;;;6.90;6.40;;;;;;;30.19;65.14;101158.19;5041460;28;69812;-40
2023/10/09 00:51:36;;;;;;;6.72;6.05;;;;;;;30.24;65.26;101155.72;5041313;28;66268;-40
2023/10/09 00:54:14;;;;;;;5.93;5.32;;;;;;;29.98;65.53;101109.72;5042374;28;70487;-39
2023/10/09 00:56:51;;;;;;;5.20;4.70;;;;;;;30.30;65.74;101161.34;5040202;28;66463;-39
2023/10/09 00:59:24;;;;;;;6.07;4.32;;;;;;;30.34;65.72;101162.56;5055693;28;70157;-39
2023/10/09 01:02:07;;;;;;;4.15;3.70;;;;;;;30.32;65.36;101161.97;5042772;28;66761;-38
2023/10/09 01:04:43;;;;;;;3.03;2.83;;;;;;;30.34;65.51;101174.25;5029941;28;68829;-38
2023/10/09 01:07:20;;;;;;;2.70;2.50;;;;;;;30.37;65.53;101171.13;5021534;28;65142;-38
2023/10/09 01:09:54;;;;;;;2.88;2.30;;;;;;;30.38;65.73;101174.66;5040242;28;69202;-38
2023/10/09 01:12:28;;;;;;;2.45;2.25;;;;;;;30.43;65.22;101183.81;5040678;28;66653;-39
2023/10/09 01:14:59;;;;;;;2.10;2.00;;;;;;;30.45;65.39;101191.69;5040134;28;68758;-38
2023/10/09 01:17:36;;;;;;;2.30;2.10;;;;;;;30.46;65.35;101190.69;5016070;28;65887;-38
2023/10/09 01:20:16;;;;;;;1.88;1.67;;;;;;;30.41;65.09;101185.88;5038405;28;70098;-38
2023/10/09 01:22:50;;;;;;;1.40;1.30;;;;;;;30.49;65.62;101188.38;5038510;28;66447;-38
2023/10/09 01:25:21;;;;;;;1.70;1.60;;;;;;;30.41;65.21;101171.53;5043647;28;70471;-39
2023/10/09 01:27:52;;;;;;;1.10;1.00;;;;;;;30.55;65.31;101192.13;5038293;28;65668;-39
2023/10/09 01:30:23;;;;;;;1.20;1.10;;;;;;;30.56;65.44;101198.34;5038771;28;69655;-39
2023/10/09 01:32:57;;;;;;;1.17;1.08;;;;;;;30.58;65.21;101193.56;5038382;28;66882;-40
2023/10/09 01:35:32;;;;;;;1.30;1.20;;;;;;;30.52;65.43;101187.13;5029119;28;70439;-38
2023/10/09 01:38:10;;;;;;;0.85;0.85;;;;;;;30.59;65.27;101196.06;5038501;28;66136;-39
2023/10/09 01:40:43;;;;;;;1.02;0.75;;;;;;;30.63;64.99;101189.19;5037825;28;70128;-39
2023/10/09 01:43:18;;;;;;;0.98;0.93;;;;;;;30.64;65.39;101182.72;5052025;28;66729;-39
2023/10/09 01:45:51;;;;;;;0.70;0.70;;;;;;;30.66;64.86;101183.34;5039535;28;69543;-39
2023/10/09 01:48:24;;;;;;;1.05;0.93;;;;;;;30.70;65.29;101187.31;5036932;28;66510;-39
2023/10/09 01:50:55;;;;;;;0.80;0.70;;;;;;;30.67;65.41;101176.03;5040250;28;70624;-39
2023/10/09 01:53:29;;;;;;;0.90;0.80;;;;;;;30.75;65.13;101185.81;5037055;28;66220;-40
2023/10/09 01:56:14;;;;;;;0.95;0.80;;;;;;;30.69;64.95;101180.22;5036854;28;70714;-39
2023/10/09 01:58:47;;;;;;;1.15;0.68;;;;;;;30.68;64.91;101175.84;5037149;28;65531;-39
2023/10/09 02:01:17;;;;;;;0.70;0.70;;;;;;;30.79;65.27;101189.78;5050904;28;68907;-41
2023/10/09 02:03:51;;;;;;;0.90;0.70;;;;;;;30.81;64.85;101201.25;5037707;28;66054;-39
2023/10/09 02:06:26;;;;;;;1.15;0.73;;;;;;;30.78;65.11;101190.81;5039173;28;70533;-39
2023/10/09 02:08:56;;;;;;;3.10;1.00;;;;;;;30.84;65.07;101206.25;5038258;28;66216;-40
2023/10/09 02:11:36;;;;;;;0.73;0.73;;;;;;;30.88;64.81;101207.50;5039314;28;69740;-39
2023/10/09 02:14:19;;;;;;;0.80;0.63;;;;;;;30.89;65.05;101206.44;5037147;28;65444;-41
2023/10/09 02:17:02;;;;;;;0.90;0.60;;;;;;;30.85;64.82;101202.50;5054107;28;69941;-40
2023/10/09 02:19:36;;;;;;;0.80;0.80;;;;;;;30.89;65.15;101195.59;5035930;28;66220;-40
2023/10/09 02:22:12;;;;;;;0.73;0.73;;;;;;;30.96;64.94;101203.72;5036359;28;70695;-39
2023/10/09 02:24:57;;;;;;;0.60;0.50;;;;;;;30.63;64.56;101142.34;5035721;28;65634;-38
2023/10/09 02:30:36;;;;;;;0.93;0.70;;;;;;;30.90;64.88;101194.59;5034773;28;65898;-39
2023/10/09 02:33:09;;;;;;;0.63;0.60;;;;;;;30.90;64.98;101183.75;5037794;28;69699;-40
2023/10/09 02:35:42;;;;;;;0.60;0.60;;;;;;;31.03;64.70;101202.63;5033125;28;66633;-40
2023/10/09 02:38:14;;;;;;;0.40;0.40;;;;;;;31.04;64.70;101201.63;5033491;28;69901;-39
2023/10/09 02:44:10;;;;;;;;;;;;;;;;;;;;;
2023/10/09 02:46:32;;;;;;;0.77;0.50;;;;;;;31.13;64.93;101194.91;5028094;28;67086;-39
2023/10/09 02:49:03;;;;;;;0.45;0.45;;;;;;;31.15;64.61;101195.53;5036202;28;70222;-40
2023/10/09 02:51:41;;;;;;;0.40;0.35;;;;;;;31.12;64.64;101181.56;5033135;28;66605;-39
2023/10/09 02:57:05;;;;;;;0.50;0.50;;;;;;;31.23;64.66;101174.63;5031377;28;65439;-39
2023/10/09 02:59:38;;;;;;;2.97;0.50;;;;;;;31.25;64.25;101183.38;5035055;28;70176;-39
2023/10/09 03:02:09;;;;;;;1.10;0.50;;;;;;;31.14;64.18;101157.78;5036249;28;66018;-38
2023/10/09 03:04:41;;;;;;;0.57;0.40;;;;;;;31.30;64.40;101183.56;5041576;28;69757;-42
2023/10/09 03:07:13;;;;;;;0.40;0.40;;;;;;;31.29;64.25;101171.09;5030606;28;66771;-39
2023/10/09 03:09:44;;;;;;;0.40;0.40;;;;;;;31.25;64.34;101148.16;5023119;28;69952;-40
2023/10/09 03:12:18;;;;;;;0.75;0.40;;;;;;;31.36;64.35;101171.91;5042404;28;66423;-39
2023/10/09 03:14:49;;;;;;;0.60;0.50;;;;;;;31.39;64.10;101171.44;5037501;28;69442;-40
2023/10/09 03:17:19;;;;;;;0.57;0.40;;;;;;;31.41;63.94;101163.94;5041571;28;65537;-39
2023/10/09 03:19:50;;;;;;;0.40;0.40;;;;;;;31.07;64.06;101106.34;5042934;28;70357;-38
2023/10/09 03:22:21;;;;;;;0.30;0.30;;;;;;;31.45;63.93;101157.03;5042067;28;66726;-38
2023/10/09 03:24:52;;;;;;;0.50;0.40;;;;;;;31.48;64.18;101155.75;5041165;28;69605;-39
2023/10/09 03:27:23;;;;;;;0.57;0.40;;;;;;;31.37;64.09;101135.59;5043077;28;65959;-40
2023/10/09 03:29:54;;;;;;;0.75;0.57;;;;;;;31.53;63.90;101156.78;5040888;28;70073;-38
2023/10/09 03:32:24;;;;;;;0.50;0.50;;;;;;;31.54;63.76;101142.19;5042629;28;65465;-39
2023/10/09 03:34:55;;;;;;;0.38;0.32;;;;;;;31.57;63.86;101140.91;5042217;28;69298;-38
2023/10/09 03:37:35;;;;;;;0.40;0.30;;;;;;;31.48;63.96;101128.66;5045157;28;65762;-39
2023/10/09 03:40:07;;;;;;;0.40;0.40;;;;;;;31.61;63.95;101134.81;5042222;28;69335;-39
2023/10/09 03:42:42;;;;;;;0.52;0.50;;;;;;;31.62;63.83;101130.22;5038305;28;66003;-39
2023/10/09 03:45:18;;;;;;;0.68;0.40;;;;;;;31.68;63.70;101133.94;5041219;28;70065;-39
2023/10/09 03:47:48;;;;;;;0.60;0.40;;;;;;;31.69;63.64;101127.47;5043314;28;65681;-38
2023/10/09 03:50:35;;;;;;;0.40;0.40;;;;;;;31.70;63.71;101123.69;5040119;28;70854;-39
2023/10/09 03:53:11;;;;;;;0.93;0.55;;;;;;;31.68;63.75;101115.81;5041406;28;66691;-39
2023/10/09 03:55:42;;;;;;;0.60;0.40;;;;;;;31.75;63.50;101121.16;5040347;28;69776;-40
2023/10/09 03:58:14;;;;;;;0.55;0.47;;;;;;;31.77;63.73;101114.47;5042004;28;66118;-39
2023/10/09 04:00:49;;;;;;;0.52;0.47;;;;;;;31.80;63.53;101118.63;5042081;28;70270;-39
2023/10/09 04:03:20;;;;;;;0.50;0.40;;;;;;;31.76;63.57;101106.53;5040303;28;66650;-39
2023/10/09 04:05:53;;;;;;;0.68;0.40;;;;;;;31.81;63.72;101109.44;5036776;28;69017;-39
2023/10/09 04:08:30;;;;;;;0.70;0.40;;;;;;;31.86;63.72;101106.88;5034265;28;66236;-40
2023/10/09 04:11:04;;;;;;;0.50;0.40;;;;;;;31.87;63.67;101108.53;5041653;28;69604;-39
2023/10/09 04:13:34;;;;;;;0.52;0.47;;;;;;;31.89;63.46;101102.91;5051789;28;66625;-38
2023/10/09 04:16:33;;;;;;;0.40;0.30;;;;;;;31.91;63.73;101098.94;5040625;28;69752;-39
2023/10/09 04:19:11;;;;;;;0.40;0.40;;;;;;;31.82;63.88;101073.13;5041019;28;66419;-39
2023/10/09 04:21:42;;;;;;;0.70;0.50;;;;;;;31.93;64.18;101091.44;5038221;28;69849;-39
2023/10/09 04:26:44;;;;;;;0.40;0.40;;;;;;;31.58;63.50;101024.09;5030238;28;70024;-39
2023/10/09 04:29:37;;;;;;;0.60;0.40;;;;;;;31.96;63.66;101074.69;5041451;28;65944;-40
2023/10/09 04:32:08;;;;;;;0.40;0.40;;;;;;;31.98;63.54;101072.59;5032761;28;69405;-40
2023/10/09 04:34:48;;;;;;;0.40;0.40;;;;;;;32.02;63.57;101073.78;5042555;28;66614;-40
2023/10/09 04:37:36;;;;;;;0.40;0.40;;;;;;;32.04;63.45;101066.28;5036996;28;70056;-38
2023/10/09 04:40:14;;;;;;;1.08;0.60;;;;;;;31.78;63.55;101012.22;5030954;28;66266;-39
2023/10/09 04:42:58;;;;;;;0.40;0.40;;;;;;;31.97;63.48;101032.94;5039883;28;70507;-39
2023/10/09 04:48:32;;;;;;;0.40;0.40;;;;;;;32.10;63.44;101052.88;5035986;28;69716;-38
2023/10/09 04:51:21;;;;;;;0.80;0.40;;;;;;;32.13;63.60;101041.56;5033371;28;66412;-38
2023/10/09 04:54:12;;;;;;;;;;;;;;;31.82;65.17;101030.56;5039858;28;69532;-39
2023/10/09 04:56:52;;;;;;;0.40;0.40;;;;;;;32.10;63.67;101025.72;5039200;28;66273;-39
2023/10/09 04:59:25;;;;;;;0.60;0.32;;;;;;;32.12;63.57;101012.75;5032569;28;70148;-38
2023/10/09 05:01:59;;;;;;;1.17;0.60;;;;;;;32.18;63.64;101014.53;5041366;28;66073;-38
2023/10/09 05:04:40;;;;;;;0.50;0.45;;;;;;;32.19;63.31;101013.50;5028714;28;70291;-39
2023/10/09 05:07:23;;;;;;;0.55;0.40;;;;;;;32.25;63.54;101020.75;5041379;28;66523;-39
2023/10/09 05:10:04;;;;;;;3.10;0.60;;;;;;;32.26;63.25;101008.81;5041775;28;69520;-40
2023/10/09 05:12:41;;;;;;;0.83;0.50;;;;;;;32.25;63.31;100993.59;5041835;28;66843;-40
2023/10/09 05:15:13;;;;;;;0.50;0.40;;;;;;;32.20;63.13;100985.31;5040213;28;70385;-40
2023/10/09 05:17:51;;;;;;;0.60;0.60;;;;;;;32.25;63.52;100980.03;5039801;28;65582;-40
2023/10/09 05:23:07;;;;;;;0.40;0.40;;;;;;;32.34;63.38;100973.22;5039578;28;66575;-40
2023/10/09 05:25:53;;;;;;;0.77;0.50;;;;;;;32.30;63.27;100961.19;5038465;28;70403;-39
2023/10/09 05:28:48;;;;;;;0.50;0.40;;;;;;;32.35;63.36;100953.19;5039252;28;65897;-41
2023/10/09 05:34:07;;;;;;;0.55;0.43;;;;;;;32.29;63.37;100937.81;5038485;28;63531;-40
2023/10/09 05:36:38;;;;;;;0.70;0.50;;;;;;;32.42;63.13;100947.66;5037307;28;69965;-40
2023/10/09 05:39:18;;;;;;;0.63;0.50;;;;;;;32.41;62.86;100930.53;5038289;28;66513;-41
2023/10/09 05:41:52;;;;;;;0.38;0.38;;;;;;;32.28;63.11;100903.56;5040065;28;70587;-40
2023/10/09 05:47:31;;;;;;;0.43;0.40;;;;;;;32.48;63.29;100915.03;5036569;28;70524;-40
2023/10/09 06:03:53;;;;;;;0.60;0.40;;;;;;;32.63;62.91;100889.34;5038315;28;70573;-41
2023/10/09 06:06:33;;;;;;;0.32;0.32;;;;;;;32.65;62.79;100881.75;5029310;28;66533;-44
2023/10/09 06:11:49;;;;;;;0.75;0.50;;;;;;;32.66;62.84;100862.53;5033847;28;65845;-38
2023/10/09 06:17:50;;;;;;;0.30;0.30;;;;;;;32.69;62.82;100839.50;5038771;28;65851;-39
2023/10/09 06:20:39;;;;;;;0.60;0.45;;;;;;;32.69;62.74;100832.19;5036389;28;69649;-38
2023/10/09 06:22:56;;;;;;;0.57;0.40;;;;;;;32.73;62.65;100829.81;5037718;28;66372;-39
2023/10/09 06:25:32;;;;;;;0.38;0.30;;;;;;;32.78;62.54;100819.06;5037297;28;70139;-39
2023/10/09 06:28:03;;;;;;;0.20;0.20;;;;;;;32.79;62.80;100812.59;5038803;28;66559;-40
2023/10/09 06:30:36;;;;;;;0.30;0.25;;;;;;;32.56;62.59;100769.09;5038878;28;69904;-40
2023/10/09 06:33:29;;;;;;;0.63;0.32;;;;;;;32.89;62.39;100815.53;5035997;28;65628;-39
2023/10/09 06:36:08;;;;;;;0.25;0.25;;;;;;;32.93;62.35;100818.59;5033881;28;70456;-40
2023/10/09 06:39:50;;;;;;;0.30;0.30;;;;;;;32.93;62.20;100808.59;5036097;28;66756;-41
2023/10/09 06:41:37;;;;;;;1.00;0.20;;;;;;;33.00;62.35;100807.66;5037569;28;69576;-40
2023/10/09 06:44:17;;;;;;;0.52;0.30;;;;;;;32.98;62.15;100796.16;5032708;28;65535;-39
2023/10/09 06:46:57;;;;;;;0.38;0.30;;;;;;;32.97;62.21;100783.66;5038398;28;70272;-39
2023/10/09 06:49:33;;;;;;;3.03;0.30;;;;;;;33.02;62.21;100783.81;5039017;28;66465;-41
2023/10/09 06:52:20;;;;;;;0.20;0.20;;;;;;;33.11;62.16;100787.81;5039148;28;69441;-39
2023/10/09 06:55:09;;;;;;;0.35;0.30;;;;;;;33.16;62.07;100790.66;5039873;28;65842;-39
2023/10/09 06:57:49;;;;;;;0.45;0.30;;;;;;;33.19;62.17;100784.72;5037437;28;70170;-39
2023/10/09 07:03:11;;;;;;;0.93;0.30;;;;;;;33.22;61.80;100784.25;5039569;28;70890;-40
2023/10/09 07:06:04;;;;;;;0.40;0.30;;;;;;;33.32;61.92;100784.47;5039118;28;65645;-38
2023/10/09 07:08:37;;;;;;;0.22;0.22;;;;;;;33.35;61.87;100789.44;5038703;28;69821;-40
2023/10/09 07:17:21;;;;;;;0.30;0.28;;;;;;;33.18;61.94;100712.38;5037258;28;65041;-39
2023/10/09 07:22:29;;;;;;;;;;;;;;;33.40;62.29;100763.41;5038720;28;65974;-39
2023/10/09 07:25:14;;;;;;;0.20;0.20;;;;;;;33.64;61.14;100748.69;5039591;28;69790;-39
2023/10/09 07:35:48;;;;;;;0.20;0.20;;;;;;;33.54;61.22;100683.22;5039679;28;69460;-40
2023/10/09 07:38:49;;;;;;;1.85;0.20;;;;;;;33.58;61.43;100695.28;5037116;28;66125;-40
2023/10/09 07:43:47;;;;;;;0.20;0.20;;;;;;;33.97;61.05;100725.38;5037428;28;66831;-38
2023/10/09 07:46:33;;;;;;;0.17;0.17;;;;;;;34.05;61.17;100721.47;5040564;28;70604;-39
2023/10/09 07:49:09;;;;;;;0.17;0.17;;;;;;;34.12;60.70;100722.94;5040808;28;66124;-38
2023/10/09 07:51:43;;;;;;;0.25;0.25;;;;;;;34.17;60.40;100717.56;5038485;28;70156;-39
2023/10/09 07:54:31;;;;;;;0.50;0.40;;;;;;;34.21;60.67;100720.63;5040476;28;65695;-38
2023/10/09 07:57:28;;;;;;;0.20;0.20;;;;;;;34.24;60.70;100703.78;5041727;28;70452;-38
2023/10/09 08:00:00;;;;;;;0.20;0.20;;;;;;;34.25;60.10;100710.91;5039035;28;66633;-38
2023/10/09 08:02:39;;;;;;;0.20;0.10;;;;;;;34.32;59.97;100705.28;5036355;28;69785;-39
2023/10/09 08:05:19;;;;;;;0.30;0.30;;;;;;;34.42;59.71;100714.44;5040308;28;65762;-40
2023/10/09 08:08:39;;;;;;;0.13;0.13;;;;;;;34.43;60.11;100704.38;5040087;28;70030;-38
2023/10/09 08:13:49;;;;;;;0.25;0.20;;;;;;;34.59;59.65;100717.19;5038541;28;69455;-41
2023/10/09 08:16:24;;;;;;;0.22;0.20;;;;;;;34.64;59.50;100714.53;5032948;28;65768;-38
2023/10/09 08:18:57;;;;;;;0.20;0.20;;;;;;;34.70;59.55;100716.25;5040606;28;70894;-38
2023/10/09 08:21:43;;;;;;;0.20;0.20;;;;;;;34.75;59.74;100699.16;5042493;28;66613;-38
2023/10/09 08:30:12;;;;;;;0.20;0.20;;;;;;;34.90;59.32;100687.63;5039091;28;69882;-40
2023/10/09 08:32:43;;;;;;;0.55;0.20;;;;;;;34.95;58.68;100698.59;5045436;28;65960;-40
2023/10/09 08:35:32;;;;;;;0.40;0.20;;;;;;;34.92;58.47;100680.03;5033135;28;69373;-40
2023/10/09 08:38:10;;;;;;;0.20;0.20;;;;;;;35.07;58.74;100702.06;5039014;28;65617;-39
2023/10/09 08:40:42;;;;;;;0.40;0.25;;;;;;;35.10;58.64;100698.84;5039941;28;70055;-39
2023/10/09 08:43:21;;;;;;;0.20;0.20;;;;;;;35.06;57.85;100700.41;5037992;28;65787;-40
2023/10/09 08:46:03;;;;;;;0.73;0.45;;;;;;;34.78;59.18;100706.81;5039927;28;70698;-40
2023/10/09 08:48:37;;;;;;;1.13;0.70;;;;;;;34.68;59.73;100707.50;5039579;28;65487;-41
2023/10/09 08:51:10;;;;;;;1.27;0.82;;;;;;;34.62;60.11;100688.59;5038235;28;70365;-40
2023/10/09 08:53:43;;;;;;;1.23;0.70;;;;;;;34.63;61.00;100712.91;5038546;28;66559;-39
2023/10/09 08:56:24;;;;;;;2.47;0.88;;;;;;;34.74;61.48;100707.56;5021140;28;70092;-40
2023/10/09 08:58:57;;;;;;;1.20;1.00;;;;;;;34.73;61.28;100711.38;5043209;28;65694;-40
2023/10/09 09:01:31;;;;;;;2.33;0.90;;;;;;;34.74;61.33;100713.03;5043565;28;70465;-41
2023/10/09 09:04:02;;;;;;;1.52;1.10;;;;;;;34.78;60.65;100704.09;5038322;28;66265;-40
2023/10/09 09:06:41;;;;;;;1.87;1.33;;;;;;;34.63;60.94;100699.28;5042173;28;70562;-41
2023/10/09 09:09:15;;;;;;;0.85;0.85;;;;;;;34.77;61.15;100707.91;5035612;28;66628;-40
2023/10/09 09:11:49;;;;;;;1.05;0.90;;;;;;;34.82;61.02;100696.25;5039493;28;69972;-41
2023/10/09 09:14:19;;;;;;;4.30;1.02;;;;;;;34.86;60.75;100694.69;5041872;28;67111;-40
2023/10/09 09:16:52;;;;;;;1.13;1.03;;;;;;;34.79;60.83;100702.19;5040219;28;71006;-40
2023/10/09 09:19:32;;;;;;;3.45;1.10;;;;;;;34.49;60.90;100648.88;5038207;28;66029;-40
2023/10/09 09:22:12;;;;;;;1.48;1.30;;;;;;;34.82;61.03;100693.50;5040650;28;69791;-40
2023/10/09 09:25:03;;;;;;;1.98;1.40;;;;;;;34.35;61.36;100633.97;5041832;28;66276;-39
2023/10/09 09:27:55;;;;;;;2.60;1.55;;;;;;;34.78;61.99;100689.66;5043552;28;70930;-39
2023/10/09 09:30:37;;;;;;;3.47;1.45;;;;;;;34.94;61.19;100696.97;5038370;28;66413;-39
2023/10/09 09:34:03;;;;;;;2.28;1.60;;;;;;;34.65;60.97;100656.22;5041993;28;70099;-40
2023/10/09 09:36:12;;;;;;;2.60;1.45;;;;;;;34.92;61.49;100699.13;5036073;28;66468;-41
2023/10/09 09:38:49;;;;;;;1.50;1.40;;;;;;;34.89;61.68;100686.81;5037706;28;70226;-39
2023/10/09 09:41:26;;;;;;;2.15;1.70;;;;;;;34.89;61.52;100688.72;5036723;28;65589;-40
2023/10/09 09:44:01;;;;;;;2.78;2.17;;;;;;;34.62;59.75;100643.13;5058465;28;70187;-40
2023/10/09 09:46:37;;;;;;;4.35;2.28;;;;;;;34.77;54.77;100685.25;5046957;28;65287;-41
2023/10/09 09:49:16;;;;;;;3.13;2.65;;;;;;;34.79;57.16;100680.41;5040997;28;69966;-40
2023/10/09 09:51:47;;;;;;;3.55;1.90;;;;;;;34.85;57.27;100693.00;5041217;28;66736;-46
2023/10/09 09:54:22;;;;;;;2.57;2.37;;;;;;;34.83;55.10;100695.19;5039383;28;70769;-40
2023/10/09 09:56:59;;;;;;;3.67;2.20;;;;;;;34.51;55.73;100638.56;5038917;28;66565;-54
2023/10/09 09:59:35;;;;;;;3.38;2.70;;;;;;;34.74;55.57;100691.22;5038581;28;69766;-40
2023/10/09 10:02:08;;;;;;;1.98;1.80;;;;;;;34.75;56.27;100692.88;5038567;28;65599;-41
2023/10/09 10:04:42;;;;;;;2.42;2.22;;;;;;;34.85;56.95;100706.63;5024609;28;69924;-40
2023/10/09 10:07:16;;;;;;;3.25;2.95;;;;;;;34.82;56.15;100709.88;5036893;28;66234;-40
2023/10/09 10:09:48;;;;;;;4.03;2.70;;;;;;;34.78;57.29;100704.09;5037474;28;70473;-42
2023/10/09 10:12:47;;;;;;;2.28;2.10;;;;;;;34.69;57.89;100713.78;5036597;28;65483;-41
2023/10/09 10:15:17;;;;;;;2.47;2.28;;;;;;;34.74;57.52;100719.28;5024631;28;70318;-40
2023/10/09 10:18:19;;;;;;;3.33;2.63;;;;;;;34.62;57.74;100722.13;5038155;28;65903;-41
2023/10/09 10:24:06;;;;;;;7.97;3.08;;;;;;;34.70;57.75;100718.97;5011899;28;66326;-41
2023/10/09 10:26:37;;;;;;;3.10;2.90;;;;;;;34.76;58.20;100724.50;5042605;28;70537;-41
2023/10/09 10:29:26;;;;;;;9.48;2.72;;;;;;;34.30;57.98;100680.19;5031487;28;66294;-43
2023/10/09 10:32:01;;;;;;;3.50;3.20;;;;;;;34.37;57.69;100686.31;5041032;28;69661;-41
2023/10/09 10:35:06;;;;;;;7.57;4.82;;;;;;;34.54;56.65;100735.31;5037424;28;65899;-40
2023/10/09 10:38:00;;;;;;;3.60;3.40;;;;;;;34.54;57.43;100733.41;5047939;28;69744;-40
2023/10/09 10:40:46;;;;;;;9.43;5.72;;;;;;;34.53;57.56;100739.94;5039990;28;65952;-41
2023/10/09 10:43:34;;;;;;;4.85;4.45;;;;;;;34.60;56.90;100754.25;5045771;28;70117;-41
2023/10/09 10:46:15;;;;;;;4.50;4.10;;;;;;;34.22;58.04;100712.22;5057046;28;66089;-41
2023/10/09 10:48:49;;;;;;;5.10;4.78;;;;;;;34.43;57.58;100762.38;5037029;28;70421;-43
2023/10/09 10:51:21;;;;;;;5.50;5.00;;;;;;;34.51;57.52;100766.59;5029664;28;65218;-40
2023/10/09 10:53:57;;;;;;;5.75;5.32;;;;;;;34.41;57.87;100761.81;5035799;28;70014;-42
2023/10/09 10:56:36;;;;;;;5.72;5.22;;;;;;;34.34;57.42;100766.59;5037714;28;66549;-42
2023/10/09 11:01:57;;;;;;;6.13;4.60;;;;;;;34.49;57.93;100779.63;5041772;28;65410;-41
2023/10/09 11:07:09;;;;;;;5.32;4.90;;;;;;;34.36;58.77;100772.63;5041533;28;66317;-43
2023/10/09 11:12:44;;;;;;;6.15;3.75;;;;;;;34.38;60.07;100786.81;5039002;28;65547;-41
2023/10/09 11:18:25;;;;;;;7.07;6.47;;;;;;;34.19;59.60;100794.38;5043131;28;66568;-41
2023/10/09 11:26:28;;;;;;;7.70;6.07;;;;;;;33.62;59.68;100712.75;5045203;28;69469;-40
2023/10/09 11:32:05;;;;;;;7.70;6.32;;;;;;;34.06;60.52;100812.91;5039659;28;70309;-42
2023/10/09 11:34:45;;;;;;;8.30;7.18;;;;;;;34.10;60.64;100817.63;5037797;28;65612;-42
2023/10/09 11:37:15;;;;;;;7.20;5.30;;;;;;;34.16;60.40;100824.81;5041152;28;69745;-40
2023/10/09 11:39:52;;;;;;;6.82;5.68;;;;;;;34.16;60.40;100835.72;5040575;28;65658;-41
2023/10/09 11:45:23;;;;;;;8.30;7.70;;;;;;;34.03;60.79;100855.84;5043643;28;66444;-41
2023/10/09 11:47:58;;;;;;;17.77;8.05;;;;;;;34.05;60.35;100847.47;5040037;28;70686;-42
2023/10/09 11:51:18;;;;;;;9.65;8.95;;;;;;;33.92;60.90;100858.63;5045288;28;65752;-42
2023/10/09 11:53:49;;;;;;;9.55;8.75;;;;;;;33.96;60.79;100857.03;5042198;28;69809;-40
2023/10/09 11:56:27;;;;;;;11.63;7.95;;;;;;;33.87;59.82;100853.06;5026172;28;66455;-41
2023/10/09 11:58:58;;;;;;;8.02;6.57;;;;;;;33.84;60.26;100851.66;5016760;28;70551;-42
2023/10/09 12:01:35;;;;;;;;;;;;;;;33.65;60.91;100859.16;5041030;28;65373;-41
2023/10/09 12:04:09;;;;;;;6.70;6.07;;;;;;;33.86;60.35;100854.16;5041475;28;70108;-42
2023/10/09 12:06:42;;;;;;;6.43;5.78;;;;;;;33.71;62.21;100865.53;5040935;28;65981;-41
2023/10/09 12:09:16;;;;;;;5.88;4.78;;;;;;;33.63;63.37;100865.88;5039303;28;70454;-42
2023/10/09 12:11:52;;;;;;;4.25;3.95;;;;;;;33.55;64.48;100876.09;5041405;28;66460;-42
2023/10/09 12:14:33;;;;;;;6.43;3.65;;;;;;;33.53;64.89;100878.22;5040351;28;69838;-41
2023/10/09 12:17:08;;;;;;;3.70;3.40;;;;;;;33.12;65.46;100822.06;5040412;28;65105;-42
2023/10/09 12:19:40;;;;;;;2.80;2.60;;;;;;;33.47;66.29;100883.75;5037009;28;69385;-41
2023/10/09 12:22:16;;;;;;;3.13;2.63;;;;;;;33.37;66.94;100877.00;5040112;28;65869;-42
2023/10/09 12:24:46;;;;;;;3.60;3.30;;;;;;;33.42;67.34;100886.34;5052686;28;70038;-41
2023/10/09 12:27:20;;;;;;;5.20;4.90;;;;;;;33.29;66.04;100881.97;5040001;28;66031;-40
2023/10/09 12:29:50;;;;;;;6.03;5.45;;;;;;;33.32;64.68;100895.94;5048363;28;70452;-40
2023/10/09 12:32:21;;;;;;;5.72;5.30;;;;;;;33.19;64.88;100877.16;5039860;28;66646;-40
2023/10/09 12:34:51;;;;;;;6.43;5.93;;;;;;;33.24;64.50;100896.31;5036375;28;70496;-43
2023/10/09 12:37:22;;;;;;;5.85;5.45;;;;;;;33.22;65.18;100897.59;5044010;28;66642;-41
2023/10/09 12:39:55;;;;;;;6.97;5.63;;;;;;;33.21;65.58;100899.50;5040987;28;69652;-42
2023/10/09 12:42:28;;;;;;;5.97;5.57;;;;;;;33.18;65.26;100901.84;5042149;28;65599;-40
2023/10/09 12:45:01;;;;;;;6.47;6.00;;;;;;;32.83;65.70;100850.97;5045818;28;69719;-41
2023/10/09 12:47:32;;;;;;;5.88;5.47;;;;;;;33.07;65.64;100898.88;5039178;28;65169;-42
2023/10/09 12:50:13;;;;;;;7.85;5.95;;;;;;;33.07;66.56;100911.63;5045510;28;69902;-40
2023/10/09 12:52:44;;;;;;;9.52;6.18;;;;;;;32.96;65.74;100894.25;5041634;28;66546;-42
2023/10/09 12:55:19;;;;;;;7.30;6.68;;;;;;;33.01;65.45;100912.56;5040052;28;70412;-41
2023/10/09 12:57:51;;;;;;;7.40;6.70;;;;;;;32.91;66.47;100908.53;5044797;28;66542;-41
2023/10/09 13:00:25;;;;;;;10.07;8.15;;;;;;;32.98;65.96;100929.31;5040627;28;70003;-40
2023/10/09 13:02:56;;;;;;;6.88;6.28;;;;;;;32.96;65.51;100932.28;5034488;28;65702;-42
2023/10/09 13:05:27;;;;;;;7.25;6.63;;;;;;;32.93;65.95;100944.44;5054645;28;69718;-40
2023/10/09 13:07:57;;;;;;;6.85;6.32;;;;;;;32.78;65.85;100922.31;5043164;28;65412;-40
2023/10/09 13:10:31;;;;;;;9.77;6.63;;;;;;;32.90;66.10;100944.91;5041274;28;68973;-40
2023/10/09 13:13:06;;;;;;;7.40;6.30;;;;;;;32.85;66.31;100947.50;5039111;28;66676;-43
2023/10/09 13:15:42;;;;;;;7.22;6.35;;;;;;;32.75;66.81;100936.34;5041227;28;70358;-43
2023/10/09 13:18:14;;;;;;;6.70;6.13;;;;;;;32.75;66.58;100947.22;5038314;28;66001;-42
2023/10/09 13:20:45;;;;;;;6.05;5.65;;;;;;;32.80;67.31;100960.94;5033485;28;69749;-42
2023/10/09 13:23:16;;;;;;;7.93;5.72;;;;;;;32.79;67.42;100967.44;5033798;28;66511;-42
2023/10/09 13:25:49;;;;;;;6.75;6.25;;;;;;;32.76;66.67;100970.59;5039845;28;70189;-43
2023/10/09 13:28:20;;;;;;;7.75;6.95;;;;;;;32.78;65.66;100978.53;5036135;28;66159;-42
2023/10/09 13:30:51;;;;;;;6.60;6.10;;;;;;;32.75;66.31;100990.69;5041378;28;69231;-43
2023/10/09 13:33:21;;;;;;;7.32;6.72;;;;;;;32.72;66.52;100980.28;5039224;28;65383;-43
2023/10/09 13:35:53;;;;;;;7.35;6.78;;;;;;;32.72;67.07;100988.44;5040257;28;70204;-43
2023/10/09 13:38:23;;;;;;;7.13;6.63;;;;;;;32.71;67.78;100989.50;5040581;28;66374;-43
2023/10/09 13:41:04;;;;;;;7.88;7.07;;;;;;;32.64;67.77;100983.31;5038002;28;70132;-45
2023/10/09 13:43:34;;;;;;;7.15;6.45;;;;;;;32.70;68.92;100993.25;5039424;28;65248;-42
2023/10/09 13:46:05;;;;;;;6.60;6.03;;;;;;;32.67;68.90;100993.72;5041085;28;69369;-43
2023/10/09 13:48:40;;;;;;;8.85;5.40;;;;;;;32.75;69.10;101006.16;5037309;28;66526;-42
2023/10/09 13:51:19;;;;;;;5.63;5.10;;;;;;;32.35;69.44;100942.31;5037980;28;70103;-43
2023/10/09 13:53:50;;;;;;;6.38;5.22;;;;;;;32.75;70.59;101011.59;5044329;28;66696;-39
2023/10/09 13:56:27;;;;;;;5.30;4.90;;;;;;;32.76;70.65;101018.66;5040744;28;70510;-44
2023/10/09 13:59:00;;;;;;;4.70;4.30;;;;;;;32.65;68.45;101014.84;5042103;28;66437;-41